Baring, WA (98224)

2:07 PM PST on February 25, 2017 (GMT -0800)
Riverwood | | Change Station
Active Advisory: Winter Weather Advisory

Elev 778 ft 47.76 °N, 121.48 °W | Updated 22 seconds ago

Snow
Snow
39.5 °F
Feels Like 40 °F
N
0.0
Wind Variable Wind from WSW

Today
High -- | Low -- °F
--% Chance of Precip.
Yesterday
High -- | Low -- °F
Precip. -- in
Pressure 30.17 in
Visibility 10.0 miles
Clouds Few 2100 ft
Mostly Cloudy 2900 ft
Overcast 6500 ft
Windchill 40 °F
Dew Point 32 °F
Humidity 76%
Rainfall 0.00 in
Snow Depth Not available.
6:53 AM 5:45 PM
Waning Crescent, 1% visible
METAR KPAE 252153Z 00000KT 10SM FEW021 BKN029 OVC065 05/00 A3015 RMK AO2 SLP214 T00500000
Pressure 30.17 in
Visibility 10.0 miles
Clouds Few 2100 ft
Mostly Cloudy 2900 ft
Overcast 6500 ft
Windchill 40 °F
Dew Point 32 °F
Humidity 76%
Rainfall 0.00 in
Snow Depth Not available.
6:53 AM 5:45 PM
Waning Crescent, 1% visible
METAR KPAE 252153Z 00000KT 10SM FEW021 BKN029 OVC065 05/00 A3015 RMK AO2 SLP214 T00500000

Get Your Daily Forecast Email!

Thanks for signing up!

Be on the lookout for a verification email in your inbox.

You'll start receiving the daily forecast at 8 AM.

×

10-Day Weather Forecast

Almanac

Astronomy

Feb. 25, 2017 Rise Set
Actual Time
Civil Twilight
Nautical Twilight
Astronomical Twilight
Moon
Length of Visible Light
Length of Day
Tomorrow will be .
, % of the Moon is Illuminated

Today's Extremes

State Highs State Lows

Community

WunderPhotos

Upload Photos

1,962,540 photos uploaded!

WunderBlog® & News

Nearby

Air Quality

  Air Quality AQ Index Pollutant
Not available.

Snow Depth

Station Depth Elevation

Earthquake Activity

City Distance Mag. Time & Date
Minimum magnitude displayed is 2.5.

Coastal Water Temperatures

Place Temperature

Stations

Nearby Weather Stations

Station Location Temp. Windchill Dew Point Humidity Wind Precip. Elev Updated Type
                   

Watches & Warnings

Winter Weather Advisory
Issued: 1:27 PM PST Feb. 25, 2017 – National Weather Service

... Winter Weather Advisory now in effect from 6 PM this evening
to 10 PM PST Sunday...

* some affected locations... Stevens Pass, Snoqualmie Pass, White
Pass, and Paradise.

* Snow accumulations... 3 to 7 inches tonight, then 2 to 6 inches
Sunday, then 1 to 5 inches Sunday evening. Total snow
accumulation 6 to 18 inches over about 24 hours.

* Snow level... falling to near 300 feet by late tonight. Rising to
1000 feet on Sunday afternoon.

* Main impact... snow will cause slippery and hazardous driving
conditions. Slow down and expect delays if traveling across
the Cascades.

Precautionary/preparedness actions...

A Winter Weather Advisory for snow means that periods of snow
will cause primarily travel difficulties. Be prepared for snow
covered roads and limited visibilities, and use caution while
driving.



Www.Weather.Gov/Seattle